This is the latest recevied weather packets stored in our database for station/object SP6KBU-12. If no packets are shown the sender has not sent any weather packets the latest 10 day(s).
| Time | Temp. | Humidity | Pressure | Rain* | Wind** | Luminosity | Snow |
|---|---|---|---|---|---|---|---|
| 1777482902 | 7.78° C | 27% | 1030 hPa | - | - | - | - |
| 1777482006 | 10° C | 24% | 1030 hPa | - | - | - | - |
| 1777481103 | 9.44° C | 25% | 1029.8 hPa | - | - | - | - |
| 1777480203 | 9.44° C | 24% | 1029.5 hPa | - | - | - | - |
| 1777479302 | 11.11° C | 24% | 1029.4 hPa | - | - | - | - |
| 1777478402 | 10° C | 24% | 1029.6 hPa | - | - | - | - |
| 1777477501 | 8.89° C | 24% | 1029.5 hPa | - | - | - | - |
| 1777476601 | 10.56° C | 23% | 1029.5 hPa | - | - | - | - |
| 1777475701 | 10° C | 24% | 1029.6 hPa | - | - | - | - |
| 1777474801 | 11.11° C | 23% | 1029.4 hPa | - | - | - | - |
| 1777474246 | 10.56° C | 23% | 1029.4 hPa | - | - | - | - |
| 1777473346 | 10.56° C | 23% | 1029.5 hPa | - | - | - | - |
| 1777472446 | 10° C | 24% | 1029.5 hPa | - | - | - | - |
| 1777471546 | 10.56° C | 23% | 1029.4 hPa | - | - | - | - |
| 1777470646 | 11.11° C | 22% | 1029.4 hPa | - | - | - | - |
| 1777469746 | 11.11° C | 21% | 1029.3 hPa | - | - | - | - |
| 1777468845 | 11.11° C | 22% | 1029.3 hPa | - | - | - | - |
| 1777467946 | 11.11° C | 20% | 1029.4 hPa | - | - | - | - |
| 1777467046 | 11.11° C | 22% | 1029.3 hPa | - | - | - | - |
| 1777466146 | 11.11° C | 21% | 1029.2 hPa | - | - | - | - |
| 1777465246 | 10.56° C | 22% | 1029.3 hPa | - | - | - | - |
| 1777464346 | 11.11° C | 22% | 1029.1 hPa | - | - | - | - |
| 1777463446 | 10.56° C | 23% | 1029.3 hPa | - | - | - | - |
| 1777462546 | 10.56° C | 23% | 1029.1 hPa | - | - | - | - |
| 1777461646 | 11.11° C | 24% | 1029.1 hPa | - | - | - | - |
* Rain since midnight (hover to see other rain measurements)
** Current wind speed in m/s (hover to see current wind gust speed)